Terminal Aerodrome Forecast
Issued by NWS Pueblo, CO

Home | Current Version | Previous Version | Text Only | Print | Product List | Glossary On
Versions: 1 2 3 4 5 6 7 8 9 10 11 12 13 14 15 16 17 18 19 20 21 22 23 24 25 26 27 28 29 30 31 32 33 34 35 36
646
FTUS45 KPUB 201803 AAA
TAFCOS
TAF AMD
KCOS 201803Z 2018/2118 VRB04KT 3SM -SN BR BKN030
      TEMPO 2018/2019 1SM -SHSN BR OVC006
     FM202000 16006KT P6SM SCT030 BKN070
     FM202200 VRB04KT P6SM BKN100
     FM210100 36005KT P6SM BKN200=

USA.gov is the U.S. government's official web portal to all federal, state and local government web resources and services.